首页
METAR-TAF:

METAR-TAF

机场 :

Reading Regional Airport (Carl A. Spaatz Field)

雷丁, 宾夕法尼亚州, 美国

纬度: 40-22-24N, 经度: 075-57-34W, 海拔: 105米

当前天气观测

该预报发布于19分钟前的07:54 UTC
风速8节,风向南转西南
温度 12°C
湿度 94%
气压 1007 hPa
能見度: 16.1公里
阴天层高于1100英尺

METAR: KRDG 100754Z AUTO 20008KT 10SM OVC011 12/11 A2974 RMK AO2 SLP076 T01170111

时间: 03:13 (08:13 UTC)

预报

该预报发布于2小时和28分钟前的05:45 UTC
预报有效从10日的 06点(UTC)到 11日的 06点(UTC)
风速12节,风向西南
能見度: 10公里
阴天层高于900英尺
从 10日的 0800点(UTC)
风速8节,风向西南
能見度: 10公里
阴天层高于1500英尺
从 10日的 1300点(UTC)
风速5节,风向西南
能見度: 10公里
阴天层高于2000英尺
附近有阵雨
短暂存在
从 10日的 18点(UTC)到 10日的 22点(UTC)
能見度: 8.0公里
阴天层高于900英尺
小雨
从 10日的 2200点(UTC)
风速9节,风向西转西北
能見度: 9.7公里
阴天层高于2000英尺
小雨, 轻雾

TAF: KRDG 100545Z 1006/1106 23012KT P6SM OVC009 WS020/22035KT FM100800 23008KT P6SM OVC015 FM101300 23005KT P6SM VCSH OVC020 TEMPO 1018/1022 5SM -RA OVC009 FM102200 29009KT 6SM -RA BR OVC020

超过4000个机场的气象观测和天气预报(METAR&TAF报告)。

可查询的气象台以黄色和红色小点在地图上表示。

将鼠标移到小点上方,可查看气象台名称。

然后点击查看天气观测和预报。

如需切换地图:点击带黑十字的绿色按钮放大地图;点击带横线的绿色按钮缩小地图;或者点击绿色箭头查看邻近地区的地图。


METAR-TAF: